sensor_id;sensor_type;location;lat;lon;timestamp;pressure;altitude;pressure_sealevel;temperature;humidity
17936;BME280;9093;52.062;4.508;2022-09-13T00:02:33;101303.84;;;19.21;76.26
17936;BME280;9093;52.062;4.508;2022-09-13T00:05:13;101301.00;;;19.22;76.52
17936;BME280;9093;52.062;4.508;2022-09-13T00:07:54;101298.28;;;19.22;76.65
17936;BME280;9093;52.062;4.508;2022-09-13T00:10:40;101306.41;;;19.22;76.44
17936;BME280;9093;52.062;4.508;2022-09-13T00:13:21;101298.28;;;19.22;76.58
17936;BME280;9093;52.062;4.508;2022-09-13T00:16:01;101301.00;;;19.22;76.67
17936;BME280;9093;52.062;4.508;2022-09-13T00:18:48;101299.31;;;19.21;76.73
17936;BME280;9093;52.062;4.508;2022-09-13T00:21:28;101303.69;;;19.22;76.66
17936;BME280;9093;52.062;4.508;2022-09-13T00:24:11;101302.00;;;19.21;76.78
17936;BME280;9093;52.062;4.508;2022-09-13T00:26:52;101307.28;;;19.23;76.72
17936;BME280;9093;52.062;4.508;2022-09-13T00:29:33;101303.69;;;19.22;76.71
17936;BME280;9093;52.062;4.508;2022-09-13T00:32:14;101298.16;;;19.24;76.50
17936;BME280;9093;52.062;4.508;2022-09-13T00:34:55;101306.16;;;19.25;76.55
17936;BME280;9093;52.062;4.508;2022-09-13T00:37:37;101315.16;;;19.26;76.79
17936;BME280;9093;52.062;4.508;2022-09-13T00:40:19;101314.16;;;19.27;76.49
17936;BME280;9093;52.062;4.508;2022-09-13T00:43:02;101300.47;;;19.28;76.60
17936;BME280;9093;52.062;4.508;2022-09-13T00:45:43;101295.06;;;19.28;76.54
17936;BME280;9093;52.062;4.508;2022-09-13T00:48:24;101304.19;;;19.27;76.60
17936;BME280;9093;52.062;4.508;2022-09-13T00:51:06;101307.91;;;19.26;76.83
17936;BME280;9093;52.062;4.508;2022-09-13T00:53:50;101313.31;;;19.26;76.97
17936;BME280;9093;52.062;4.508;2022-09-13T00:56:40;101311.47;;;19.27;76.80
17936;BME280;9093;52.062;4.508;2022-09-13T00:59:45;101313.31;;;19.26;76.82
17936;BME280;9093;52.062;4.508;2022-09-13T01:02:28;101320.44;;;19.27;76.96
17936;BME280;9093;52.062;4.508;2022-09-13T01:05:09;101304.19;;;19.27;76.92
17936;BME280;9093;52.062;4.508;2022-09-13T01:07:57;101308.75;;;19.27;77.01
17936;BME280;9093;52.062;4.508;2022-09-13T01:10:39;101295.34;;;19.25;76.89
17936;BME280;9093;52.062;4.508;2022-09-13T01:13:24;101300.75;;;19.25;77.30
17936;BME280;9093;52.062;4.508;2022-09-13T01:16:08;101296.44;;;19.23;77.22
17936;BME280;9093;52.062;4.508;2022-09-13T01:18:48;101300.00;;;19.23;77.36
17936;BME280;9093;52.062;4.508;2022-09-13T01:28:11;101306.41;;;19.22;77.61
17936;BME280;9093;52.062;4.508;2022-09-13T01:31:09;101286.47;;;19.23;77.30
17936;BME280;9093;52.062;4.508;2022-09-13T01:37:29;101280.34;;;19.21;77.49
17936;BME280;9093;52.062;4.508;2022-09-13T01:43:29;101282.44;;;19.18;77.60
17936;BME280;9093;52.062;4.508;2022-09-13T01:49:58;101281.56;;;19.17;77.71
17936;BME280;9093;52.062;4.508;2022-09-13T01:52:57;101276.16;;;19.17;77.97
17936;BME280;9093;52.062;4.508;2022-09-13T01:55:47;101279.84;;;19.16;77.98
17936;BME280;9093;52.062;4.508;2022-09-13T01:58:42;101274.44;;;19.16;77.96
17936;BME280;9093;52.062;4.508;2022-09-13T02:01:45;101271.00;;;19.14;77.86
17936;BME280;9093;52.062;4.508;2022-09-13T02:04:40;101278.16;;;19.15;77.91
17936;BME280;9093;52.062;4.508;2022-09-13T02:07:29;101275.44;;;19.15;77.93
17936;BME280;9093;52.062;4.508;2022-09-13T02:10:16;101282.56;;;19.16;77.93
17936;BME280;9093;52.062;4.508;2022-09-13T02:13:03;101275.28;;;19.17;77.92
17936;BME280;9093;52.062;4.508;2022-09-13T02:15:46;101269.16;;;19.15;78.13
17936;BME280;9093;52.062;4.508;2022-09-13T02:18:37;101274.69;;;19.13;78.29
17936;BME280;9093;52.062;4.508;2022-09-13T02:21:24;101276.53;;;19.13;78.27
17936;BME280;9093;52.062;4.508;2022-09-13T02:24:12;101280.34;;;19.10;78.08
17936;BME280;9093;52.062;4.508;2022-09-13T02:27:04;101272.13;;;19.12;78.25
17936;BME280;9093;52.062;4.508;2022-09-13T02:29:49;101276.94;;;19.08;78.43
17936;BME280;9093;52.062;4.508;2022-09-13T02:32:45;101274.34;;;19.07;78.26
17936;BME280;9093;52.062;4.508;2022-09-13T02:35:52;101278.91;;;19.06;78.56
17936;BME280;9093;52.062;4.508;2022-09-13T02:38:48;101270.66;;;19.08;78.32
17936;BME280;9093;52.062;4.508;2022-09-13T02:41:42;101273.47;;;19.06;78.35
17936;BME280;9093;52.062;4.508;2022-09-13T02:44:51;101274.34;;;19.07;78.62
17936;BME280;9093;52.062;4.508;2022-09-13T02:47:46;101274.34;;;19.07;78.39
17936;BME280;9093;52.062;4.508;2022-09-13T02:50:48;101270.91;;;19.05;78.47
17936;BME280;9093;52.062;4.508;2022-09-13T02:53:39;101282.59;;;19.05;78.58
17936;BME280;9093;52.062;4.508;2022-09-13T02:59:18;101283.44;;;19.06;78.61
17936;BME280;9093;52.062;4.508;2022-09-13T03:02:08;101281.72;;;19.05;78.85
17936;BME280;9093;52.062;4.508;2022-09-13T03:04:50;101282.59;;;19.05;78.63
17936;BME280;9093;52.062;4.508;2022-09-13T03:07:31;101287.03;;;19.06;78.67
17936;BME280;9093;52.062;4.508;2022-09-13T03:10:13;101278.91;;;19.06;78.87
17936;BME280;9093;52.062;4.508;2022-09-13T03:13:19;101278.03;;;19.06;78.87
17936;BME280;9093;52.062;4.508;2022-09-13T03:19:45;101273.72;;;19.03;78.74
17936;BME280;9093;52.062;4.508;2022-09-13T03:28:37;101279.13;;;19.03;78.63
17936;BME280;9093;52.062;4.508;2022-09-13T03:31:33;101283.84;;;19.01;78.74
17936;BME280;9093;52.062;4.508;2022-09-13T03:34:29;101283.97;;;19.00;78.92
17936;BME280;9093;52.062;4.508;2022-09-13T03:43:30;101289.47;;;18.98;79.07
17936;BME280;9093;52.062;4.508;2022-09-13T03:46:25;101288.50;;;18.99;79.29
17936;BME280;9093;52.062;4.508;2022-09-13T03:49:17;101288.50;;;18.99;78.92
17936;BME280;9093;52.062;4.508;2022-09-13T03:51:59;101290.22;;;19.00;79.04
17936;BME280;9093;52.062;4.508;2022-09-13T03:54:41;101293.91;;;18.99;78.95
17936;BME280;9093;52.062;4.508;2022-09-13T03:57:21;101288.50;;;18.99;79.34
17936;BME280;9093;52.062;4.508;2022-09-13T04:00:03;101279.41;;;19.00;79.21
17936;BME280;9093;52.062;4.508;2022-09-13T04:02:45;101283.09;;;18.99;79.21
17936;BME280;9093;52.062;4.508;2022-09-13T04:05:25;101289.47;;;18.98;79.03
17936;BME280;9093;52.062;4.508;2022-09-13T04:08:07;101292.47;;;18.95;79.13
17936;BME280;9093;52.062;4.508;2022-09-13T04:10:49;101278.19;;;18.93;79.11
17936;BME280;9093;52.062;4.508;2022-09-13T04:13:31;101287.28;;;18.92;79.41
17936;BME280;9093;52.062;4.508;2022-09-13T04:16:12;101280.41;;;18.88;79.20
17936;BME280;9093;52.062;4.508;2022-09-13T04:18:54;101280.66;;;18.85;79.35
17936;BME280;9093;52.062;4.508;2022-09-13T04:21:34;101285.19;;;18.84;79.49
17936;BME280;9093;52.062;4.508;2022-09-13T04:24:16;101290.88;;;18.81;79.45
17936;BME280;9093;52.062;4.508;2022-09-13T04:26:57;101290.13;;;18.79;79.53
17936;BME280;9093;52.062;4.508;2022-09-13T04:29:37;101296.78;;;18.75;79.37
17936;BME280;9093;52.062;4.508;2022-09-13T04:32:17;101300.56;;;18.73;79.47
17936;BME280;9093;52.062;4.508;2022-09-13T04:34:58;101300.72;;;18.71;79.50
17936;BME280;9093;52.062;4.508;2022-09-13T04:37:43;101301.81;;;18.69;79.41
17936;BME280;9093;52.062;4.508;2022-09-13T04:40:24;101307.47;;;18.66;79.58
17936;BME280;9093;52.062;4.508;2022-09-13T04:43:05;101305.78;;;18.65;79.61
17936;BME280;9093;52.062;4.508;2022-09-13T04:45:47;101311.19;;;18.65;79.78
17936;BME280;9093;52.062;4.508;2022-09-13T04:48:29;101309.44;;;18.64;79.57
17936;BME280;9093;52.062;4.508;2022-09-13T04:51:13;101311.19;;;18.65;79.69
17936;BME280;9093;52.062;4.508;2022-09-13T04:53:56;101307.47;;;18.66;79.75
17936;BME280;9093;52.062;4.508;2022-09-13T04:56:36;101321.72;;;18.68;79.48
17936;BME280;9093;52.062;4.508;2022-09-13T04:59:17;101316.31;;;18.68;79.22
17936;BME280;9093;52.062;4.508;2022-09-13T05:01:57;101312.53;;;18.70;79.66
17936;BME280;9093;52.062;4.508;2022-09-13T05:04:37;101310.69;;;18.71;79.39
17936;BME280;9093;52.062;4.508;2022-09-13T05:07:17;101310.41;;;18.74;79.38
17936;BME280;9093;52.062;4.508;2022-09-13T05:09:58;101310.41;;;18.74;79.17
17936;BME280;9093;52.062;4.508;2022-09-13T05:12:39;101313.88;;;18.76;79.72
17936;BME280;9093;52.062;4.508;2022-09-13T05:15:20;101311.88;;;18.78;79.45
17936;BME280;9093;52.062;4.508;2022-09-13T05:18:00;101313.59;;;18.79;79.65
17936;BME280;9093;52.062;4.508;2022-09-13T05:20:40;101319.03;;;18.79;79.68
17936;BME280;9093;52.062;4.508;2022-09-13T05:23:22;101321.50;;;18.82;79.68
17936;BME280;9093;52.062;4.508;2022-09-13T05:26:04;101321.50;;;18.82;79.52
17936;BME280;9093;52.062;4.508;2022-09-13T05:28:45;101323.94;;;18.85;79.58
17936;BME280;9093;52.062;4.508;2022-09-13T05:31:33;101328.47;;;18.84;79.61
17936;BME280;9093;52.062;4.508;2022-09-13T05:34:15;101327.66;;;18.84;79.64
17936;BME280;9093;52.062;4.508;2022-09-13T05:36:59;101321.00;;;18.88;79.58
17936;BME280;9093;52.062;4.508;2022-09-13T05:39:41;101336.97;;;18.91;79.45
17936;BME280;9093;52.062;4.508;2022-09-13T05:42:21;101335.00;;;18.93;79.62
17936;BME280;9093;52.062;4.508;2022-09-13T05:45:01;101342.88;;;18.96;79.77
17936;BME280;9093;52.062;4.508;2022-09-13T05:47:42;101345.09;;;19.02;79.60
17936;BME280;9093;52.062;4.508;2022-09-13T05:50:22;101342.13;;;19.05;79.57
17936;BME280;9093;52.062;4.508;2022-09-13T05:53:04;101336.47;;;19.08;79.66
17936;BME280;9093;52.062;4.508;2022-09-13T05:55:45;101337.94;;;19.12;79.56
17936;BME280;9093;52.062;4.508;2022-09-13T05:58:25;101343.13;;;19.15;79.94
17936;BME280;9093;52.062;4.508;2022-09-13T06:01:07;101335.72;;;19.17;79.93
17936;BME280;9093;52.062;4.508;2022-09-13T06:03:49;101338.88;;;19.22;79.60
17936;BME280;9093;52.062;4.508;2022-09-13T06:06:29;101345.06;;;19.24;79.60
17936;BME280;9093;52.062;4.508;2022-09-13T06:09:10;101347.53;;;19.27;79.67
17936;BME280;9093;52.062;4.508;2022-09-13T06:11:52;101349.22;;;19.28;79.80
17936;BME280;9093;52.062;4.508;2022-09-13T06:14:33;101351.69;;;19.32;79.85
17936;BME280;9093;52.062;4.508;2022-09-13T06:17:14;101348.84;;;19.33;79.85
17936;BME280;9093;52.062;4.508;2022-09-13T06:19:55;101357.84;;;19.34;79.61
17936;BME280;9093;52.062;4.508;2022-09-13T06:22:37;101357.84;;;19.34;79.94
17936;BME280;9093;52.062;4.508;2022-09-13T06:25:18;101363.25;;;19.34;80.02
17936;BME280;9093;52.062;4.508;2022-09-13T06:28:00;101353.41;;;19.33;79.96
17936;BME280;9093;52.062;4.508;2022-09-13T06:30:40;101356.13;;;19.33;79.92
17936;BME280;9093;52.062;4.508;2022-09-13T06:33:20;101361.25;;;19.36;79.95
17936;BME280;9093;52.062;4.508;2022-09-13T06:36:06;101352.28;;;19.35;79.92
17936;BME280;9093;52.062;4.508;2022-09-13T06:38:48;101348.22;;;19.41;80.15
17936;BME280;9093;52.062;4.508;2022-09-13T06:41:28;101349.44;;;19.48;80.08
17936;BME280;9093;52.062;4.508;2022-09-13T06:44:09;101355.09;;;19.56;80.03
17936;BME280;9093;52.062;4.508;2022-09-13T06:46:51;101357.41;;;19.60;79.84
17936;BME280;9093;52.062;4.508;2022-09-13T06:49:31;101347.94;;;19.66;79.94
17936;BME280;9093;52.062;4.508;2022-09-13T06:52:12;101350.25;;;19.71;79.65
17936;BME280;9093;52.062;4.508;2022-09-13T06:54:53;101347.16;;;19.75;79.46
17936;BME280;9093;52.062;4.508;2022-09-13T06:57:34;101345.19;;;19.77;79.91
17936;BME280;9093;52.062;4.508;2022-09-13T07:00:14;101350.31;;;19.80;79.89
17936;BME280;9093;52.062;4.508;2022-09-13T07:02:54;101352.06;;;19.81;79.82
17936;BME280;9093;52.062;4.508;2022-09-13T07:05:35;101357.94;;;19.86;79.87
17936;BME280;9093;52.062;4.508;2022-09-13T07:08:15;101347.97;;;19.87;79.90
17936;BME280;9093;52.062;4.508;2022-09-13T07:10:56;101351.53;;;19.87;79.73
17936;BME280;9093;52.062;4.508;2022-09-13T07:13:39;101355.38;;;19.85;80.08
17936;BME280;9093;52.062;4.508;2022-09-13T07:16:22;101352.69;;;19.85;79.95
17936;BME280;9093;52.062;4.508;2022-09-13T07:19:05;101350.66;;;19.87;80.31
17936;BME280;9093;52.062;4.508;2022-09-13T07:21:47;101362.13;;;19.90;80.37
17936;BME280;9093;52.062;4.508;2022-09-13T07:24:29;101363.56;;;19.94;80.19
17936;BME280;9093;52.062;4.508;2022-09-13T07:27:11;101356.06;;;19.98;80.27
17936;BME280;9093;52.062;4.508;2022-09-13T07:29:54;101361.34;;;19.99;80.07
17936;BME280;9093;52.062;4.508;2022-09-13T07:32:34;101364.03;;;19.99;80.20
17936;BME280;9093;52.062;4.508;2022-09-13T07:35:15;101370.44;;;19.98;80.16
17936;BME280;9093;52.062;4.508;2022-09-13T07:37:56;101365.88;;;19.99;80.14
17936;BME280;9093;52.062;4.508;2022-09-13T07:40:36;101364.03;;;19.99;80.38
17936;BME280;9093;52.062;4.508;2022-09-13T07:43:17;101368.47;;;20.00;80.37
17936;BME280;9093;52.062;4.508;2022-09-13T07:46:02;101367.63;;;20.00;80.23
17936;BME280;9093;52.062;4.508;2022-09-13T07:48:44;101368.22;;;20.03;80.16
17936;BME280;9093;52.062;4.508;2022-09-13T07:51:30;101365.38;;;20.05;80.13
17936;BME280;9093;52.062;4.508;2022-09-13T07:54:16;101372.50;;;20.06;80.18
17936;BME280;9093;52.062;4.508;2022-09-13T07:56:56;101375.09;;;20.07;79.98
17936;BME280;9093;52.062;4.508;2022-09-13T07:59:38;101382.25;;;20.08;80.21
17936;BME280;9093;52.062;4.508;2022-09-13T08:02:18;101372.16;;;20.11;80.05
17936;BME280;9093;52.062;4.508;2022-09-13T08:04:58;101382.84;;;20.12;79.78
17936;BME280;9093;52.062;4.508;2022-09-13T08:07:38;101375.56;;;20.13;79.79
17936;BME280;9093;52.062;4.508;2022-09-13T08:10:19;101377.28;;;20.14;79.90
17936;BME280;9093;52.062;4.508;2022-09-13T08:12:59;101378.16;;;20.14;79.91
17936;BME280;9093;52.062;4.508;2022-09-13T08:15:41;101380.75;;;20.16;79.75
17936;BME280;9093;52.062;4.508;2022-09-13T08:18:22;101381.44;;;20.18;79.94
17936;BME280;9093;52.062;4.508;2022-09-13T08:21:02;101384.66;;;20.23;79.96
17936;BME280;9093;52.062;4.508;2022-09-13T08:23:43;101389.78;;;20.26;79.74
17936;BME280;9093;52.062;4.508;2022-09-13T08:26:24;101389.25;;;20.32;79.84
17936;BME280;9093;52.062;4.508;2022-09-13T08:29:05;101391.47;;;20.38;79.29
17936;BME280;9093;52.062;4.508;2022-09-13T08:31:46;101385.94;;;20.39;79.65
17936;BME280;9093;52.062;4.508;2022-09-13T08:34:26;101387.38;;;20.43;79.47
17936;BME280;9093;52.062;4.508;2022-09-13T08:37:06;101391.69;;;20.46;79.37
17936;BME280;9093;52.062;4.508;2022-09-13T08:39:47;101395.13;;;20.48;79.43
17936;BME280;9093;52.062;4.508;2022-09-13T08:42:34;101396.72;;;20.51;79.56
17936;BME280;9093;52.062;4.508;2022-09-13T08:45:18;101391.72;;;20.56;79.44
17936;BME280;9093;52.062;4.508;2022-09-13T08:48:04;101391.47;;;20.59;79.31
17936;BME280;9093;52.062;4.508;2022-09-13T08:50:52;101396.63;;;20.62;79.58
17936;BME280;9093;52.062;4.508;2022-09-13T08:53:44;101407.22;;;20.65;79.52
17936;BME280;9093;52.062;4.508;2022-09-13T08:56:50;101411.53;;;20.67;79.19
17936;BME280;9093;52.062;4.508;2022-09-13T08:59:44;101411.25;;;20.70;79.34
17936;BME280;9093;52.062;4.508;2022-09-13T09:05:32;101406.16;;;20.77;79.25
17936;BME280;9093;52.062;4.508;2022-09-13T09:08:34;101420.47;;;20.79;79.00
17936;BME280;9093;52.062;4.508;2022-09-13T09:11:50;101410.19;;;20.82;78.78
17936;BME280;9093;52.062;4.508;2022-09-13T09:14:38;101408.19;;;20.84;78.76
17936;BME280;9093;52.062;4.508;2022-09-13T09:17:31;101409.75;;;20.87;78.84
17936;BME280;9093;52.062;4.508;2022-09-13T09:20:27;101405.94;;;20.90;79.13
17936;BME280;9093;52.062;4.508;2022-09-13T09:23:25;101400.50;;;20.90;78.91
17936;BME280;9093;52.062;4.508;2022-09-13T09:26:23;101394.22;;;20.89;78.71
17936;BME280;9093;52.062;4.508;2022-09-13T09:29:19;101398.53;;;20.92;79.06
17936;BME280;9093;52.062;4.508;2022-09-13T09:35:34;101407.69;;;21.00;78.87
17936;BME280;9093;52.062;4.508;2022-09-13T09:38:38;101401.41;;;21.00;78.88
17936;BME280;9093;52.062;4.508;2022-09-13T09:41:41;101403.84;;;21.03;78.83
17936;BME280;9093;52.062;4.508;2022-09-13T09:44:28;101404.59;;;21.05;78.83
17936;BME280;9093;52.062;4.508;2022-09-13T09:47:21;101401.72;;;21.06;78.82
17936;BME280;9093;52.062;4.508;2022-09-13T09:50:09;101401.31;;;21.11;78.42
17936;BME280;9093;52.062;4.508;2022-09-13T09:55:50;101400.03;;;21.15;78.01
17936;BME280;9093;52.062;4.508;2022-09-13T10:01:31;101407.22;;;21.16;77.91
17936;BME280;9093;52.062;4.508;2022-09-13T10:10:18;101395.22;;;21.18;77.51
17936;BME280;9093;52.062;4.508;2022-09-13T10:13:05;101390.66;;;21.19;77.40
17936;BME280;9093;52.062;4.508;2022-09-13T10:15:55;101382.25;;;21.22;77.39
17936;BME280;9093;52.062;4.508;2022-09-13T10:18:37;101388.97;;;21.27;77.17
17936;BME280;9093;52.062;4.508;2022-09-13T10:21:24;101387.56;;;21.33;76.99
17936;BME280;9093;52.062;4.508;2022-09-13T10:24:23;101375.84;;;21.33;76.93
17936;BME280;9093;52.062;4.508;2022-09-13T10:27:18;101378.41;;;21.34;76.75
17936;BME280;9093;52.062;4.508;2022-09-13T10:30:01;101379.28;;;21.35;76.84
17936;BME280;9093;52.062;4.508;2022-09-13T10:32:56;101382.13;;;21.33;76.80
17936;BME280;9093;52.062;4.508;2022-09-13T10:35:36;101376.69;;;21.33;76.83
17936;BME280;9093;52.062;4.508;2022-09-13T10:38:35;101369.97;;;21.37;76.80
17936;BME280;9093;52.062;4.508;2022-09-13T10:41:22;101374.28;;;21.40;76.58
17936;BME280;9093;52.062;4.508;2022-09-13T10:44:05;101376.88;;;21.41;76.29
17936;BME280;9093;52.062;4.508;2022-09-13T10:46:48;101367.00;;;21.40;76.10
17936;BME280;9093;52.062;4.508;2022-09-13T10:52:45;101377.41;;;21.35;76.50
17936;BME280;9093;52.062;4.508;2022-09-13T10:55:34;101387.56;;;21.33;76.38
17936;BME280;9093;52.062;4.508;2022-09-13T10:58:16;101386.44;;;21.36;75.63
17936;BME280;9093;52.062;4.508;2022-09-13T11:01:30;101382.44;;;21.40;75.65
17936;BME280;9093;52.062;4.508;2022-09-13T11:07:45;101377.84;;;21.40;75.39
17936;BME280;9093;52.062;4.508;2022-09-13T11:10:37;101378.13;;;21.37;75.37
17936;BME280;9093;52.062;4.508;2022-09-13T11:16:36;101385.56;;;21.35;75.07
17936;BME280;9093;52.062;4.508;2022-09-13T11:22:45;101370.69;;;21.39;74.76
17936;BME280;9093;52.062;4.508;2022-09-13T11:28:51;101358.13;;;21.38;74.49
17936;BME280;9093;52.062;4.508;2022-09-13T11:31:41;101366.25;;;21.38;74.25
17936;BME280;9093;52.062;4.508;2022-09-13T11:46:31;101379.41;;;21.33;73.75
17936;BME280;9093;52.062;4.508;2022-09-13T11:50:49;101376.13;;;21.30;73.69
17936;BME280;9093;52.062;4.508;2022-09-13T11:55:58;101388.84;;;21.29;72.79
17936;BME280;9093;52.062;4.508;2022-09-13T12:01:51;101373.53;;;21.28;72.65
17936;BME280;9093;52.062;4.508;2022-09-13T12:04:51;101375.25;;;21.29;72.51
17936;BME280;9093;52.062;4.508;2022-09-13T12:10:24;101374.66;;;21.25;72.29
17936;BME280;9093;52.062;4.508;2022-09-13T12:13:12;101386.69;;;21.23;72.02
17936;BME280;9093;52.062;4.508;2022-09-13T12:15:59;101379.22;;;21.25;71.95
17936;BME280;9093;52.062;4.508;2022-09-13T12:18:46;101372.81;;;21.26;71.83
17936;BME280;9093;52.062;4.508;2022-09-13T12:21:34;101378.97;;;21.28;71.47
17936;BME280;9093;52.062;4.508;2022-09-13T12:24:20;101372.25;;;21.32;71.38
17936;BME280;9093;52.062;4.508;2022-09-13T12:30:22;101372.00;;;21.35;71.00
17936;BME280;9093;52.062;4.508;2022-09-13T12:33:04;101378.41;;;21.34;70.72
17936;BME280;9093;52.062;4.508;2022-09-13T12:35:52;101371.00;;;21.36;70.82
17936;BME280;9093;52.062;4.508;2022-09-13T12:42:05;101362.13;;;21.44;70.42
17936;BME280;9093;52.062;4.508;2022-09-13T12:50:43;101360.16;;;21.55;69.83
17936;BME280;9093;52.062;4.508;2022-09-13T12:53:47;101359.59;;;21.61;69.19
17936;BME280;9093;52.062;4.508;2022-09-13T13:02:37;101348.16;;;21.67;69.33
17936;BME280;9093;52.062;4.508;2022-09-13T13:08:27;101352.72;;;21.77;68.55
17936;BME280;9093;52.062;4.508;2022-09-13T13:11:11;101352.16;;;21.83;68.25
17936;BME280;9093;52.062;4.508;2022-09-13T13:16:48;101357.09;;;21.98;68.04
17936;BME280;9093;52.062;4.508;2022-09-13T13:19:31;101367.38;;;22.04;67.58
17936;BME280;9093;52.062;4.508;2022-09-13T13:25:36;101371.06;;;22.13;67.04
17936;BME280;9093;52.062;4.508;2022-09-13T13:39:48;101360.19;;;22.13;66.33
17936;BME280;9093;52.062;4.508;2022-09-13T13:42:49;101362.22;;;22.11;65.74
17936;BME280;9093;52.062;4.508;2022-09-13T13:45:29;101356.91;;;22.10;65.74
17936;BME280;9093;52.062;4.508;2022-09-13T13:48:13;101365.38;;;22.07;65.46
17936;BME280;9093;52.062;4.508;2022-09-13T13:51:14;101375.66;;;22.03;65.57
17936;BME280;9093;52.062;4.508;2022-09-13T13:54:02;101376.25;;;21.97;65.57
17936;BME280;9093;52.062;4.508;2022-09-13T13:56:48;101368.63;;;21.91;64.94
17936;BME280;9093;52.062;4.508;2022-09-13T13:59:32;101375.63;;;21.84;65.60
17936;BME280;9093;52.062;4.508;2022-09-13T14:02:17;101367.47;;;21.84;65.15
17936;BME280;9093;52.062;4.508;2022-09-13T14:05:08;101373.91;;;21.83;65.20
17936;BME280;9093;52.062;4.508;2022-09-13T14:11:21;101369.03;;;21.77;65.01
17936;BME280;9093;52.062;4.508;2022-09-13T14:17:40;101372.16;;;21.62;65.06
17936;BME280;9093;52.062;4.508;2022-09-13T14:20:26;101370.19;;;21.64;64.99
17936;BME280;9093;52.062;4.508;2022-09-13T14:23:16;101372.03;;;21.64;64.91
17936;BME280;9093;52.062;4.508;2022-09-13T14:25:59;101373.59;;;21.57;64.46
17936;BME280;9093;52.062;4.508;2022-09-13T14:28:39;101364.16;;;21.51;64.83
17936;BME280;9093;52.062;4.508;2022-09-13T14:31:20;101370.56;;;21.50;64.80
17936;BME280;9093;52.062;4.508;2022-09-13T14:34:01;101365.75;;;21.54;64.57
17936;BME280;9093;52.062;4.508;2022-09-13T14:36:54;101366.16;;;21.59;64.82
17936;BME280;9093;52.062;4.508;2022-09-13T14:39:35;101370.47;;;21.61;64.73
17936;BME280;9093;52.062;4.508;2022-09-13T14:42:15;101366.03;;;21.60;64.15
17936;BME280;9093;52.062;4.508;2022-09-13T14:44:55;101373.88;;;21.54;64.21
17936;BME280;9093;52.062;4.508;2022-09-13T14:50:45;101381.91;;;21.55;64.10
17936;BME280;9093;52.062;4.508;2022-09-13T14:53:28;101373.59;;;21.57;63.96
17936;BME280;9093;52.062;4.508;2022-09-13T14:56:16;101382.78;;;21.56;63.85
17936;BME280;9093;52.062;4.508;2022-09-13T14:58:59;101378.47;;;21.53;63.66
17936;BME280;9093;52.062;4.508;2022-09-13T15:01:42;101380.44;;;21.51;63.58
17936;BME280;9093;52.062;4.508;2022-09-13T15:04:23;101370.88;;;21.47;63.64
17936;BME280;9093;52.062;4.508;2022-09-13T15:07:21;101373.28;;;21.41;64.03
17936;BME280;9093;52.062;4.508;2022-09-13T15:13:08;101368.97;;;21.38;64.00
17936;BME280;9093;52.062;4.508;2022-09-13T15:15:49;101364.41;;;21.29;63.43
17936;BME280;9093;52.062;4.508;2022-09-13T15:18:31;101361.25;;;21.24;63.54
17936;BME280;9093;52.062;4.508;2022-09-13T15:21:16;101361.25;;;21.24;63.86
17936;BME280;9093;52.062;4.508;2022-09-13T15:23:58;101371.25;;;21.23;63.50
17936;BME280;9093;52.062;4.508;2022-09-13T15:26:38;101366.06;;;21.20;63.56
17936;BME280;9093;52.062;4.508;2022-09-13T15:29:18;101372.66;;;21.18;63.56
17936;BME280;9093;52.062;4.508;2022-09-13T15:32:03;101369.44;;;21.13;63.63
17936;BME280;9093;52.062;4.508;2022-09-13T15:34:45;101360.13;;;21.06;63.50
17936;BME280;9093;52.062;4.508;2022-09-13T15:37:28;101355.97;;;21.02;64.12
17936;BME280;9093;52.062;4.508;2022-09-13T15:40:18;101350.38;;;20.94;63.89
17936;BME280;9093;52.062;4.508;2022-09-13T15:42:58;101354.22;;;20.91;63.64
17936;BME280;9093;52.062;4.508;2022-09-13T15:45:39;101350.78;;;20.89;63.80
17936;BME280;9093;52.062;4.508;2022-09-13T15:48:28;101344.25;;;20.92;63.78
17936;BME280;9093;52.062;4.508;2022-09-13T15:51:12;101351.09;;;20.96;63.73
17936;BME280;9093;52.062;4.508;2022-09-13T15:53:53;101353.00;;;21.05;63.79
17936;BME280;9093;52.062;4.508;2022-09-13T15:56:34;101349.75;;;21.11;63.50
17936;BME280;9093;52.062;4.508;2022-09-13T15:59:20;101347.72;;;21.13;63.53
17936;BME280;9093;52.062;4.508;2022-09-13T16:02:14;101350.72;;;21.10;63.72
17936;BME280;9093;52.062;4.508;2022-09-13T16:04:56;101344.88;;;21.05;63.62
17936;BME280;9093;52.062;4.508;2022-09-13T16:07:37;101331.69;;;21.00;63.53
17936;BME280;9093;52.062;4.508;2022-09-13T16:10:21;101330.81;;;21.00;63.40
17936;BME280;9093;52.062;4.508;2022-09-13T16:13:02;101326.41;;;20.99;63.61
17936;BME280;9093;52.062;4.508;2022-09-13T16:15:42;101326.41;;;20.99;63.42
17936;BME280;9093;52.062;4.508;2022-09-13T16:18:23;101321.25;;;20.96;63.45
17936;BME280;9093;52.062;4.508;2022-09-13T16:21:03;101318.09;;;20.91;63.62
17936;BME280;9093;52.062;4.508;2022-09-13T16:23:44;101311.19;;;20.86;63.59
17936;BME280;9093;52.062;4.508;2022-09-13T16:26:25;101315.31;;;20.81;63.59
17936;BME280;9093;52.062;4.508;2022-09-13T16:29:11;101314.75;;;20.77;63.93
17936;BME280;9093;52.062;4.508;2022-09-13T16:31:52;101318.75;;;20.73;63.51
17936;BME280;9093;52.062;4.508;2022-09-13T16:34:32;101309.13;;;20.69;63.40
17936;BME280;9093;52.062;4.508;2022-09-13T16:37:14;101312.13;;;20.66;63.60
17936;BME280;9093;52.062;4.508;2022-09-13T16:39:55;101317.25;;;20.60;63.66
17936;BME280;9093;52.062;4.508;2022-09-13T16:42:38;101316.63;;;20.56;63.60
17936;BME280;9093;52.062;4.508;2022-09-13T16:45:18;101316.94;;;20.53;63.67
17936;BME280;9093;52.062;4.508;2022-09-13T16:48:00;101318.91;;;20.51;63.89
17936;BME280;9093;52.062;4.508;2022-09-13T16:50:41;101314.88;;;20.45;64.17
17936;BME280;9093;52.062;4.508;2022-09-13T16:53:21;101307.16;;;20.41;64.20
17936;BME280;9093;52.062;4.508;2022-09-13T16:56:10;101309.13;;;20.39;64.12
17936;BME280;9093;52.062;4.508;2022-09-13T16:58:51;101302.28;;;20.35;64.12
17936;BME280;9093;52.062;4.508;2022-09-13T17:01:32;101304.25;;;20.33;64.26